createdAt,value
2022-12-19T00:00:29.000Z,88.45
2022-12-19T00:01:29.000Z,88.07
2022-12-19T00:02:29.000Z,87.19
2022-12-19T00:03:29.000Z,86.77
2022-12-19T00:04:29.000Z,86.77
2022-12-19T00:05:29.000Z,87.08
2022-12-19T00:06:29.000Z,86.87
2022-12-19T00:07:29.000Z,86.55
2022-12-19T00:08:29.000Z,86.45
2022-12-19T00:09:29.000Z,86.45
2022-12-19T00:10:29.000Z,86.45
2022-12-19T00:11:29.000Z,86.66
2022-12-19T00:12:29.000Z,86.87
2022-12-19T00:13:29.000Z,86.98
2022-12-19T00:14:29.000Z,86.55
2022-12-19T00:15:29.000Z,86.34
2022-12-19T00:16:29.000Z,86.13
2022-12-19T00:17:29.000Z,86.34
2022-12-19T00:18:29.000Z,86.55
2022-12-19T00:19:29.000Z,86.77
2022-12-19T00:20:29.000Z,87.08
2022-12-19T00:21:28.000Z,87.19
2022-12-19T00:22:28.000Z,87.19
2022-12-19T00:23:28.000Z,87.23
2022-12-19T00:24:28.000Z,87.50
2022-12-19T00:25:28.000Z,87.65
2022-12-19T00:26:28.000Z,87.65
2022-12-19T00:27:28.000Z,87.54
2022-12-19T00:28:28.000Z,87.54
2022-12-19T00:29:28.000Z,87.86
2022-12-19T00:30:28.000Z,87.86
2022-12-19T00:31:28.000Z,87.86
2022-12-19T00:32:28.000Z,87.96
2022-12-19T00:33:28.000Z,88.18
2022-12-19T00:34:28.000Z,88.28
2022-12-19T00:35:28.000Z,88.39
2022-12-19T00:36:28.000Z,88.49
2022-12-19T00:37:28.000Z,88.60
2022-12-19T00:38:28.000Z,88.70
2022-12-19T00:39:28.000Z,88.70
2022-12-19T00:40:28.000Z,89.02
2022-12-19T00:41:28.000Z,89.02
2022-12-19T00:42:28.000Z,89.12
2022-12-19T00:43:28.000Z,89.23
2022-12-19T00:44:28.000Z,89.34
2022-12-19T00:45:28.000Z,89.44
2022-12-19T00:46:28.000Z,89.44
2022-12-19T00:47:28.000Z,89.44
2022-12-19T00:48:28.000Z,89.44
2022-12-19T00:49:28.000Z,89.54
2022-12-19T00:50:28.000Z,89.65
2022-12-19T00:51:28.000Z,89.65
2022-12-19T00:52:28.000Z,89.65
2022-12-19T00:53:28.000Z,89.44
2022-12-19T00:54:28.000Z,89.34
2022-12-19T00:55:28.000Z,89.44
2022-12-19T00:56:28.000Z,89.34
2022-12-19T00:57:28.000Z,89.44
2022-12-19T00:58:28.000Z,89.54
2022-12-19T00:59:28.000Z,89.65
2022-12-19T01:00:28.000Z,89.76
2022-12-19T01:01:28.000Z,89.76
2022-12-19T01:02:28.000Z,89.86
2022-12-19T01:03:28.000Z,89.65
2022-12-19T01:04:28.000Z,89.44
2022-12-19T01:05:28.000Z,89.44
2022-12-19T01:06:28.000Z,89.76
2022-12-19T01:07:28.000Z,89.54
2022-12-19T01:08:28.000Z,89.54
2022-12-19T01:09:28.000Z,89.34
2022-12-19T01:10:27.000Z,89.23
2022-12-19T01:11:27.000Z,89.29
2022-12-19T01:12:27.000Z,89.34
2022-12-19T01:13:27.000Z,89.19
2022-12-19T01:14:27.000Z,88.98
2022-12-19T01:15:27.000Z,88.77
2022-12-19T01:16:27.000Z,88.92
2022-12-19T01:17:27.000Z,89.09
2022-12-19T01:18:27.000Z,88.87
2022-12-19T01:19:27.000Z,88.77
2022-12-19T01:20:27.000Z,88.77
2022-12-19T01:21:27.000Z,88.66
2022-12-19T01:22:27.000Z,88.45
2022-12-19T01:23:27.000Z,88.56
2022-12-19T01:24:27.000Z,88.45
2022-12-19T01:25:27.000Z,88.56
2022-12-19T01:26:27.000Z,88.77
2022-12-19T01:27:27.000Z,88.98
2022-12-19T01:28:27.000Z,89.40
2022-12-19T01:29:27.000Z,89.82
2022-12-19T01:30:27.000Z,89.93
2022-12-19T01:31:27.000Z,89.72
2022-12-19T01:31:27.000Z,89.72
2022-12-19T01:32:27.000Z,89.51
2022-12-19T01:32:27.000Z,89.51
2022-12-19T01:33:27.000Z,89.72
2022-12-19T01:33:27.000Z,89.72
2022-12-19T01:34:27.000Z,89.82
2022-12-19T01:34:27.000Z,89.82
2022-12-19T01:35:27.000Z,89.57
2022-12-19T01:35:27.000Z,89.57
2022-12-19T01:36:27.000Z,89.57
2022-12-19T01:37:27.000Z,89.68
2022-12-19T01:38:27.000Z,89.57
2022-12-19T01:39:27.000Z,89.89
2022-12-19T01:40:27.000Z,89.47
2022-12-19T01:41:37.000Z,88.94
2022-12-19T01:42:27.000Z,88.37
2022-12-19T01:43:27.000Z,88.41
2022-12-19T01:44:27.000Z,88.06
2022-12-19T01:45:27.000Z,87.85
2022-12-19T01:46:27.000Z,87.42
2022-12-19T01:47:27.000Z,87.21
2022-12-19T01:48:27.000Z,87.11
2022-12-19T01:49:27.000Z,87.00
2022-12-19T01:50:27.000Z,87.07
2022-12-19T01:51:27.000Z,86.65
2022-12-19T01:52:27.000Z,86.12
2022-12-19T01:53:27.000Z,85.28
2022-12-19T01:54:27.000Z,85.38
2022-12-19T01:55:27.000Z,84.92
2022-12-19T01:56:26.000Z,84.82
2022-12-19T01:57:26.000Z,85.03
2022-12-19T01:58:26.000Z,84.50
2022-12-19T01:59:26.000Z,84.40
2022-12-19T02:00:26.000Z,84.05
2022-12-19T02:01:26.000Z,83.73
2022-12-19T02:02:26.000Z,84.05
2022-12-19T02:03:26.000Z,83.10
2022-12-19T02:04:26.000Z,82.26
2022-12-19T02:05:26.000Z,82.36
2022-12-19T02:06:26.000Z,81.90
2022-12-19T02:07:26.000Z,80.43
2022-12-19T02:08:26.000Z,80.29
2022-12-19T02:09:26.000Z,79.45
2022-12-19T02:10:26.000Z,79.66
2022-12-19T02:11:26.000Z,80.29
2022-12-19T02:12:26.000Z,79.87
2022-12-19T02:13:26.000Z,79.55
2022-12-19T02:14:26.000Z,78.50
2022-12-19T02:15:26.000Z,76.79
2022-12-19T02:16:26.000Z,77.10
2022-12-19T02:17:26.000Z,77.84
2022-12-19T02:18:26.000Z,78.36
2022-12-19T02:19:26.000Z,77.73
2022-12-19T02:20:26.000Z,76.75
2022-12-19T02:21:26.000Z,75.70
2022-12-19T02:22:26.000Z,76.02
2022-12-19T02:23:26.000Z,74.33
2022-12-19T02:24:26.000Z,74.76
2022-12-19T02:25:26.000Z,74.20
2022-12-19T02:26:26.000Z,72.41
2022-12-19T02:27:26.000Z,72.80
2022-12-19T02:28:26.000Z,71.86
2022-12-19T02:29:25.000Z,71.75
2022-12-19T02:30:25.000Z,71.09
2022-12-19T02:31:25.000Z,70.98
2022-12-19T02:32:25.000Z,69.93
2022-12-19T02:33:25.000Z,70.36
2022-12-19T02:34:25.000Z,69.83
2022-12-19T02:35:25.000Z,70.46
2022-12-19T02:36:25.000Z,70.11
2022-12-19T02:37:25.000Z,69.59
2022-12-19T02:38:25.000Z,70.22
2022-12-19T02:39:25.000Z,69.80
2022-12-19T02:40:25.000Z,68.85
2022-12-19T02:41:25.000Z,69.27
2022-12-19T02:42:25.000Z,69.27
2022-12-19T02:43:25.000Z,68.30
2022-12-19T02:44:25.000Z,68.30
2022-12-19T02:45:25.000Z,67.57
2022-12-19T02:46:25.000Z,67.96
2022-12-19T02:47:25.000Z,67.33
2022-12-19T02:48:25.000Z,67.85
2022-12-19T02:49:25.000Z,66.91
2022-12-19T02:50:25.000Z,66.70
2022-12-19T02:51:25.000Z,66.70
2022-12-19T02:52:25.000Z,66.14
2022-12-19T02:53:25.000Z,65.94
2022-12-19T02:54:25.000Z,66.04
2022-12-19T02:55:24.000Z,66.67
2022-12-19T02:56:24.000Z,66.67
2022-12-19T02:57:24.000Z,66.67
2022-12-19T02:58:24.000Z,67.09
2022-12-19T02:59:24.000Z,65.62
2022-12-19T03:00:24.000Z,66.25
2022-12-19T03:01:24.000Z,66.46
2022-12-19T03:02:24.000Z,66.14
2022-12-19T03:03:24.000Z,66.67
2022-12-19T03:04:24.000Z,66.56
2022-12-19T03:05:24.000Z,65.17
2022-12-19T03:06:24.000Z,66.67
2022-12-19T03:07:24.000Z,66.46
2022-12-19T03:08:24.000Z,65.17
2022-12-19T03:09:24.000Z,65.80
2022-12-19T03:10:24.000Z,64.86
2022-12-19T03:11:24.000Z,65.38
2022-12-19T03:12:24.000Z,66.01
2022-12-19T03:13:23.000Z,64.86
2022-12-19T03:14:23.000Z,65.28
2022-12-19T03:15:23.000Z,64.76
2022-12-19T03:16:23.000Z,64.86
2022-12-19T03:17:23.000Z,65.70
2022-12-19T03:18:23.000Z,66.74
2022-12-19T03:19:23.000Z,66.96
2022-12-19T03:20:23.000Z,65.59
2022-12-19T03:21:23.000Z,67.06
2022-12-19T03:22:23.000Z,66.46
2022-12-19T03:23:23.000Z,66.99
2022-12-19T03:24:23.000Z,67.30
2022-12-19T03:25:23.000Z,67.93
2022-12-19T03:26:23.000Z,68.34
2022-12-19T03:27:23.000Z,68.45
2022-12-19T03:28:23.000Z,68.34
2022-12-19T03:29:23.000Z,68.24
2022-12-19T03:30:23.000Z,69.29
2022-12-19T03:31:23.000Z,70.57
2022-12-19T03:32:22.000Z,68.90
2022-12-19T03:33:22.000Z,68.59
2022-12-19T03:34:22.000Z,69.63
2022-12-19T03:35:22.000Z,69.95
2022-12-19T03:36:32.000Z,69.32
2022-12-19T03:37:22.000Z,69.84
2022-12-19T03:38:22.000Z,69.84
2022-12-19T03:39:22.000Z,70.26
2022-12-19T03:40:22.000Z,69.42
2022-12-19T03:41:22.000Z,69.63
2022-12-19T03:42:22.000Z,70.99
2022-12-19T03:43:22.000Z,69.42
2022-12-19T03:44:22.000Z,70.26
2022-12-19T03:45:22.000Z,69.95
2022-12-19T03:46:22.000Z,71.10
2022-12-19T03:47:22.000Z,71.41
2022-12-19T03:48:21.000Z,70.78
2022-12-19T03:49:21.000Z,70.26
2022-12-19T03:50:21.000Z,71.03
2022-12-19T03:51:21.000Z,70.37
2022-12-19T03:52:21.000Z,70.40
2022-12-19T03:53:21.000Z,71.20
2022-12-19T03:54:21.000Z,71.62
2022-12-19T03:55:21.000Z,70.89
2022-12-19T03:56:21.000Z,70.68
2022-12-19T03:57:21.000Z,72.35
2022-12-19T03:58:21.000Z,71.51
2022-12-19T03:59:21.000Z,72.28
2022-12-19T04:00:21.000Z,72.14
2022-12-19T04:01:21.000Z,71.34
2022-12-19T04:02:21.000Z,71.34
2022-12-19T04:03:21.000Z,70.78
2022-12-19T04:04:21.000Z,71.03
2022-12-19T04:05:21.000Z,71.41
2022-12-19T04:06:20.000Z,70.99
2022-12-19T04:07:20.000Z,70.37
2022-12-19T04:08:20.000Z,71.31
2022-12-19T04:09:20.000Z,70.99
2022-12-19T04:10:20.000Z,71.31
2022-12-19T04:11:20.000Z,71.73
2022-12-19T04:12:20.000Z,71.41
2022-12-19T04:13:20.000Z,71.83
2022-12-19T04:14:20.000Z,72.35
2022-12-19T04:15:20.000Z,73.12
2022-12-19T04:16:20.000Z,71.86
2022-12-19T04:17:20.000Z,72.49
2022-12-19T04:18:20.000Z,71.86
2022-12-19T04:19:20.000Z,71.86
2022-12-19T04:20:20.000Z,73.02
2022-12-19T04:21:20.000Z,73.02
2022-12-19T04:22:20.000Z,73.02
2022-12-19T04:23:20.000Z,73.33
2022-12-19T04:24:20.000Z,73.33
2022-12-19T04:25:19.000Z,72.91
2022-12-19T04:26:19.000Z,72.39
2022-12-19T04:27:19.000Z,73.02
2022-12-19T04:28:19.000Z,73.02
2022-12-19T04:29:19.000Z,73.02
2022-12-19T04:30:19.000Z,73.85
2022-12-19T04:31:19.000Z,73.12
2022-12-19T04:32:19.000Z,73.05
2022-12-19T04:33:19.000Z,73.26
2022-12-19T04:34:19.000Z,74.30
2022-12-19T04:35:19.000Z,74.30
2022-12-19T04:36:19.000Z,73.89
2022-12-19T04:37:19.000Z,73.99
2022-12-19T04:38:19.000Z,73.36
2022-12-19T04:39:19.000Z,72.94
2022-12-19T04:40:19.000Z,73.26
2022-12-19T04:41:19.000Z,73.79
2022-12-19T04:42:18.000Z,73.36
2022-12-19T04:43:18.000Z,73.79
2022-12-19T04:44:18.000Z,73.99
2022-12-19T04:45:18.000Z,74.20
2022-12-19T04:46:18.000Z,73.89
2022-12-19T04:47:18.000Z,74.30
2022-12-19T04:48:18.000Z,73.89
2022-12-19T04:49:18.000Z,74.55
2022-12-19T04:50:18.000Z,74.30
2022-12-19T04:51:18.000Z,74.13
2022-12-19T04:52:18.000Z,74.55
2022-12-19T04:53:18.000Z,74.52
2022-12-19T04:54:18.000Z,75.39
2022-12-19T04:55:18.000Z,75.70
2022-12-19T04:56:18.000Z,74.76
2022-12-19T04:57:18.000Z,75.70
2022-12-19T04:58:18.000Z,75.92
2022-12-19T04:59:18.000Z,75.39
2022-12-19T05:00:18.000Z,75.07
2022-12-19T05:01:17.000Z,75.39
2022-12-19T05:02:17.000Z,75.60
2022-12-19T05:03:17.000Z,74.65
2022-12-19T05:04:17.000Z,74.52
2022-12-19T05:05:17.000Z,74.10
2022-12-19T05:06:17.000Z,75.04
2022-12-19T05:07:17.000Z,75.67
2022-12-19T05:08:17.000Z,76.09
2022-12-19T05:09:17.000Z,76.30
2022-12-19T05:10:17.000Z,76.19
2022-12-19T05:11:17.000Z,76.19
2022-12-19T05:12:17.000Z,76.72
2022-12-19T05:13:17.000Z,76.19
2022-12-19T05:14:17.000Z,75.98
2022-12-19T05:15:17.000Z,76.51
2022-12-19T05:16:17.000Z,76.61
2022-12-19T05:17:17.000Z,77.03
2022-12-19T05:18:17.000Z,76.72
2022-12-19T05:19:17.000Z,76.72
2022-12-19T05:20:16.000Z,76.40
2022-12-19T05:21:16.000Z,76.51
2022-12-19T05:22:16.000Z,77.24
2022-12-19T05:23:16.000Z,76.61
2022-12-19T05:24:16.000Z,76.30
2022-12-19T05:25:16.000Z,76.09
2022-12-19T05:26:16.000Z,75.98
2022-12-19T05:27:16.000Z,76.51
2022-12-19T05:28:16.000Z,77.45
2022-12-19T05:29:16.000Z,77.14
2022-12-19T05:30:16.000Z,76.19
2022-12-19T05:31:16.000Z,76.61
2022-12-19T05:31:16.000Z,76.61
2022-12-19T05:32:16.000Z,76.61
2022-12-19T05:32:16.000Z,76.61
2022-12-19T05:33:16.000Z,76.82
2022-12-19T05:33:16.000Z,76.82
2022-12-19T05:34:16.000Z,76.93
2022-12-19T05:34:16.000Z,76.93
2022-12-19T05:35:16.000Z,77.14
2022-12-19T05:35:16.000Z,77.14
2022-12-19T05:36:16.000Z,76.30
2022-12-19T05:37:16.000Z,75.98
2022-12-19T05:38:16.000Z,76.19
2022-12-19T05:39:15.000Z,76.72
2022-12-19T05:40:15.000Z,76.93
2022-12-19T05:41:15.000Z,76.72
2022-12-19T05:42:15.000Z,75.98
2022-12-19T05:43:15.000Z,75.98
2022-12-19T05:44:15.000Z,75.35
2022-12-19T05:45:15.000Z,75.56
2022-12-19T05:46:15.000Z,75.56
2022-12-19T05:47:15.000Z,75.78
2022-12-19T05:48:15.000Z,76.61
2022-12-19T05:49:15.000Z,76.19
2022-12-19T05:50:15.000Z,75.95
2022-12-19T05:57:32.000Z,75.63
2022-12-19T05:57:32.000Z,76.57
2022-12-19T05:58:32.000Z,76.37
2022-12-19T05:59:32.000Z,76.37
2022-12-19T06:00:32.000Z,76.51
2022-12-19T06:01:32.000Z,76.37
2022-12-19T06:02:32.000Z,76.26
2022-12-19T06:03:32.000Z,76.47
2022-12-19T06:04:32.000Z,77.14
2022-12-19T06:05:32.000Z,75.95
2022-12-19T06:06:32.000Z,76.06
2022-12-19T06:07:32.000Z,76.89
2022-12-19T06:08:32.000Z,77.62
2022-12-19T06:09:32.000Z,78.36
2022-12-19T06:10:32.000Z,77.73
2022-12-19T06:11:32.000Z,78.08
2022-12-19T06:12:32.000Z,77.66
2022-12-19T06:13:32.000Z,77.76
2022-12-19T06:14:32.000Z,77.34
2022-12-19T06:15:32.000Z,77.94
2022-12-19T06:16:32.000Z,78.46
2022-12-19T06:16:32.000Z,78.46
2022-12-19T06:17:32.000Z,78.15
2022-12-19T06:17:32.000Z,78.15
2022-12-19T06:18:32.000Z,78.15
2022-12-19T06:18:32.000Z,78.15
2022-12-19T06:19:32.000Z,77.62
2022-12-19T06:19:32.000Z,77.62
2022-12-19T06:20:32.000Z,76.57
2022-12-19T06:20:32.000Z,76.57
2022-12-19T06:21:32.000Z,77.52
2022-12-19T06:22:32.000Z,77.83
2022-12-19T06:23:32.000Z,77.52
2022-12-19T06:24:32.000Z,77.94
2022-12-19T06:25:32.000Z,78.05
2022-12-19T06:26:32.000Z,77.94
2022-12-19T06:27:32.000Z,77.62
2022-12-19T06:28:32.000Z,78.15
2022-12-19T06:29:32.000Z,78.05
2022-12-19T06:30:32.000Z,78.05
2022-12-19T06:31:32.000Z,77.62
2022-12-19T06:32:32.000Z,77.52
2022-12-19T06:33:32.000Z,76.89
2022-12-19T06:34:32.000Z,76.89
2022-12-19T06:35:32.000Z,77.42
2022-12-19T06:36:32.000Z,77.94
2022-12-19T06:37:32.000Z,77.94
2022-12-19T06:38:32.000Z,78.15
2022-12-19T06:39:32.000Z,77.94
2022-12-19T06:40:32.000Z,77.31
2022-12-19T06:41:32.000Z,77.62
2022-12-19T06:42:32.000Z,77.83
2022-12-19T06:43:32.000Z,77.52
2022-12-19T06:44:32.000Z,78.05
2022-12-19T06:45:32.000Z,78.05
2022-12-19T06:46:32.000Z,78.57
2022-12-19T06:47:32.000Z,77.42
2022-12-19T06:48:32.000Z,76.68
2022-12-19T06:49:32.000Z,77.62
2022-12-19T06:50:32.000Z,78.01
2022-12-19T06:51:32.000Z,78.32
2022-12-19T06:52:32.000Z,78.01
2022-12-19T06:53:32.000Z,78.01
2022-12-19T06:54:32.000Z,78.53
2022-12-19T06:55:32.000Z,78.43
2022-12-19T06:56:32.000Z,77.38
2022-12-19T06:57:32.000Z,77.91
2022-12-19T06:58:32.000Z,78.85
2022-12-19T06:59:32.000Z,78.85
2022-12-19T07:00:32.000Z,78.85
2022-12-19T07:01:32.000Z,78.53
2022-12-19T07:01:32.000Z,78.53
2022-12-19T07:02:32.000Z,78.74
2022-12-19T07:02:32.000Z,78.74
2022-12-19T07:03:32.000Z,78.01
2022-12-19T07:03:32.000Z,78.01
2022-12-19T07:04:32.000Z,78.11
2022-12-19T07:04:32.000Z,78.11
2022-12-19T07:05:32.000Z,78.32
2022-12-19T07:05:32.000Z,78.32
2022-12-19T07:06:32.000Z,78.64
2022-12-19T07:07:32.000Z,78.95
2022-12-19T07:08:32.000Z,79.47
2022-12-19T07:09:32.000Z,78.85
2022-12-19T07:10:32.000Z,77.59
2022-12-19T07:11:32.000Z,77.69
2022-12-19T07:12:32.000Z,78.11
2022-12-19T07:13:32.000Z,77.38
2022-12-19T07:14:32.000Z,77.69
2022-12-19T07:15:32.000Z,77.34
2022-12-19T07:16:32.000Z,77.66
2022-12-19T07:17:32.000Z,76.30
2022-12-19T07:18:32.000Z,77.34
2022-12-19T07:19:32.000Z,77.03
2022-12-19T07:20:32.000Z,76.82
2022-12-19T07:21:32.000Z,75.78
2022-12-19T07:22:32.000Z,76.09
2022-12-19T07:23:32.000Z,76.30
2022-12-19T07:24:32.000Z,75.46
2022-12-19T07:25:32.000Z,75.46
2022-12-19T07:26:32.000Z,75.46
2022-12-19T07:27:32.000Z,74.94
2022-12-19T07:28:32.000Z,75.67
2022-12-19T07:29:32.000Z,75.15
2022-12-19T07:30:32.000Z,74.73
2022-12-19T07:31:32.000Z,74.52
2022-12-19T07:32:32.000Z,75.04
2022-12-19T07:33:32.000Z,74.21
2022-12-19T07:34:32.000Z,73.79
2022-12-19T07:35:32.000Z,74.31
2022-12-19T07:36:32.000Z,73.79
2022-12-19T07:37:32.000Z,73.99
2022-12-19T07:38:32.000Z,73.99
2022-12-19T07:39:32.000Z,73.68
2022-12-19T07:40:32.000Z,74.31
2022-12-19T07:41:32.000Z,74.73
2022-12-19T07:42:32.000Z,74.31
2022-12-19T07:43:32.000Z,73.99
2022-12-19T07:44:32.000Z,73.89
2022-12-19T07:45:32.000Z,74.62
2022-12-19T07:46:32.000Z,74.73
2022-12-19T07:47:32.000Z,74.52
2022-12-19T07:48:32.000Z,75.78
2022-12-19T07:49:32.000Z,75.15
2022-12-19T07:50:32.000Z,74.21
2022-12-19T07:51:32.000Z,74.10
2022-12-19T07:52:32.000Z,73.99
2022-12-19T07:53:32.000Z,75.04
2022-12-19T07:54:32.000Z,74.52
2022-12-19T07:55:32.000Z,74.62
2022-12-19T07:56:32.000Z,74.94
2022-12-19T07:57:32.000Z,75.25
2022-12-19T07:58:32.000Z,75.67
2022-12-19T07:59:32.000Z,74.62
2022-12-19T08:00:32.000Z,75.35
2022-12-19T08:01:32.000Z,75.04
2022-12-19T08:02:32.000Z,75.15
2022-12-19T08:03:32.000Z,75.35
2022-12-19T08:04:32.000Z,75.04
2022-12-19T08:05:32.000Z,75.78
2022-12-19T08:06:32.000Z,76.20
2022-12-19T08:07:32.000Z,76.20
2022-12-19T08:08:32.000Z,75.67
2022-12-19T08:09:32.000Z,76.61
2022-12-19T08:10:32.000Z,76.72
2022-12-19T08:11:32.000Z,76.40
2022-12-19T08:12:32.000Z,76.40
2022-12-19T08:13:32.000Z,75.67
2022-12-19T08:14:32.000Z,76.51
2022-12-19T08:15:32.000Z,76.26
2022-12-19T08:22:50.000Z,75.43
2022-12-19T08:22:50.000Z,75.53
2022-12-19T08:23:50.000Z,75.32
2022-12-19T08:24:50.000Z,75.53
2022-12-19T08:25:50.000Z,74.49
2022-12-19T08:33:08.000Z,75.43
2022-12-19T08:33:08.000Z,77.20
2022-12-19T08:34:08.000Z,75.53
2022-12-19T08:35:08.000Z,74.90
2022-12-19T08:36:08.000Z,74.49
2022-12-19T08:37:08.000Z,74.69
2022-12-19T08:38:08.000Z,75.29
2022-12-19T08:39:08.000Z,76.16
2022-12-19T08:40:08.000Z,75.81
2022-12-19T08:41:08.000Z,75.74
2022-12-19T08:42:08.000Z,76.23
2022-12-19T08:43:08.000Z,76.26
2022-12-19T08:44:08.000Z,77.28
2022-12-19T08:45:08.000Z,77.59
2022-12-19T08:46:08.000Z,78.42
2022-12-19T08:47:08.000Z,78.85
2022-12-19T08:48:08.000Z,78.22
2022-12-19T08:49:08.000Z,79.36
2022-12-19T08:50:08.000Z,78.85
2022-12-19T08:51:08.000Z,79.16
2022-12-19T08:52:08.000Z,79.16
2022-12-19T08:53:08.000Z,79.99
2022-12-19T08:54:08.000Z,80.41
2022-12-19T08:55:08.000Z,81.15
2022-12-19T08:56:08.000Z,80.83
2022-12-19T08:57:08.000Z,80.41
2022-12-19T08:58:08.000Z,80.62
2022-12-19T08:59:08.000Z,80.93
2022-12-19T09:00:08.000Z,81.77
2022-12-19T09:01:08.000Z,82.09
2022-12-19T09:08:26.000Z,85.01
2022-12-19T09:08:26.000Z,85.12
2022-12-19T09:09:26.000Z,85.74
2022-12-19T09:10:26.000Z,85.01
2022-12-19T09:11:26.000Z,85.85
2022-12-19T09:12:26.000Z,85.85
2022-12-19T09:13:26.000Z,85.53
2022-12-19T09:14:26.000Z,85.64
2022-12-19T09:15:26.000Z,86.16
2022-12-19T09:16:26.000Z,86.47
2022-12-19T09:17:26.000Z,86.58
2022-12-19T09:18:26.000Z,87.00
2022-12-19T09:19:26.000Z,87.42
2022-12-19T09:20:26.000Z,87.94
2022-12-19T09:21:26.000Z,88.67
2022-12-19T09:22:26.000Z,87.94
2022-12-19T09:22:26.000Z,87.94
2022-12-19T09:23:26.000Z,88.04
2022-12-19T09:23:26.000Z,88.04
2022-12-19T09:24:26.000Z,87.73
2022-12-19T09:24:26.000Z,87.73
2022-12-19T09:25:26.000Z,87.84
2022-12-19T09:25:26.000Z,87.84
2022-12-19T09:26:26.000Z,88.26
2022-12-19T09:26:26.000Z,88.26
2022-12-19T09:27:26.000Z,88.57
2022-12-19T09:28:26.000Z,88.67
2022-12-19T09:29:26.000Z,88.42
2022-12-19T09:30:26.000Z,89.47
2022-12-19T09:31:26.000Z,88.84
2022-12-19T09:32:26.000Z,88.95
2022-12-19T09:33:26.000Z,89.05
2022-12-19T09:34:26.000Z,88.84
2022-12-19T09:35:26.000Z,89.47
2022-12-19T09:36:26.000Z,89.78
2022-12-19T09:37:26.000Z,89.78
2022-12-19T09:37:26.000Z,89.78
2022-12-19T09:38:26.000Z,89.89
2022-12-19T09:38:26.000Z,89.89
2022-12-19T09:39:26.000Z,90.31
2022-12-19T09:39:26.000Z,90.31
2022-12-19T09:40:25.000Z,90.20
2022-12-19T09:40:25.000Z,90.20
2022-12-19T09:41:25.000Z,90.72
2022-12-19T09:41:25.000Z,90.72
2022-12-19T09:42:25.000Z,91.46
2022-12-19T09:43:25.000Z,91.56
2022-12-19T09:44:25.000Z,91.46
2022-12-19T09:45:25.000Z,91.14
2022-12-19T09:46:25.000Z,91.03
2022-12-19T09:47:25.000Z,91.03
2022-12-19T09:48:25.000Z,91.66
2022-12-19T09:49:25.000Z,92.08
2022-12-19T09:50:25.000Z,92.29
2022-12-19T09:51:25.000Z,92.08
2022-12-19T09:52:25.000Z,92.50
2022-12-19T09:53:25.000Z,92.92
2022-12-19T09:54:25.000Z,93.23
2022-12-19T09:55:25.000Z,93.23
2022-12-19T09:56:25.000Z,93.33
2022-12-19T09:57:25.000Z,92.82
2022-12-19T09:58:25.000Z,93.23
2022-12-19T09:59:25.000Z,93.13
2022-12-19T10:00:25.000Z,93.44
2022-12-19T10:01:25.000Z,93.76
2022-12-19T10:02:25.000Z,94.07
2022-12-19T10:02:25.000Z,94.07
2022-12-19T10:03:25.000Z,94.07
2022-12-19T10:03:25.000Z,94.07
2022-12-19T10:04:25.000Z,94.38
2022-12-19T10:04:25.000Z,94.38
2022-12-19T10:05:25.000Z,94.90
2022-12-19T10:05:25.000Z,94.90
2022-12-19T10:06:25.000Z,95.01
2022-12-19T10:06:25.000Z,95.01
2022-12-19T10:07:25.000Z,95.01
2022-12-19T10:08:25.000Z,95.11
2022-12-19T10:09:25.000Z,95.21
2022-12-19T10:10:25.000Z,95.74
2022-12-19T10:11:25.000Z,95.74
2022-12-19T10:30:19.000Z,97.72
2022-12-19T10:30:19.000Z,97.62
2022-12-19T10:31:19.000Z,97.83
2022-12-19T10:32:19.000Z,97.94
2022-12-19T10:33:19.000Z,98.04
2022-12-19T10:34:19.000Z,98.25
2022-12-19T10:35:19.000Z,98.14
2022-12-19T10:36:19.000Z,98.56
2022-12-19T10:37:19.000Z,98.67
2022-12-19T10:38:19.000Z,98.67
2022-12-19T10:38:19.000Z,98.67
2022-12-19T10:39:19.000Z,98.77
2022-12-19T10:39:19.000Z,98.77
2022-12-19T10:40:19.000Z,98.88
2022-12-19T10:40:19.000Z,98.88
2022-12-19T10:41:19.000Z,98.77
2022-12-19T10:41:19.000Z,98.77
2022-12-19T10:42:19.000Z,98.98
2022-12-19T10:42:19.000Z,98.98
2022-12-19T10:43:19.000Z,98.88
2022-12-19T10:44:19.000Z,98.98
2022-12-19T10:45:19.000Z,99.08
2022-12-19T10:46:19.000Z,99.08
2022-12-19T10:47:19.000Z,99.19
2022-12-19T10:48:19.000Z,99.29
2022-12-19T10:49:19.000Z,99.35
2022-12-19T10:50:19.000Z,99.29
2022-12-19T10:51:19.000Z,99.40
2022-12-19T10:52:19.000Z,99.29
2022-12-19T10:53:19.000Z,99.40
2022-12-19T10:54:19.000Z,99.40
2022-12-19T10:55:19.000Z,99.51
2022-12-19T10:56:19.000Z,99.51
2022-12-19T10:57:19.000Z,99.61
2022-12-19T10:58:19.000Z,99.66
2022-12-19T10:59:19.000Z,99.99
2022-12-19T11:00:19.000Z,99.98
2022-12-19T11:01:19.000Z,99.99
2022-12-19T11:02:19.000Z,99.99
2022-12-19T11:03:19.000Z,99.99
2022-12-19T11:04:19.000Z,99.99
2022-12-19T11:05:19.000Z,99.99
2022-12-19T11:06:19.000Z,99.99
2022-12-19T11:07:19.000Z,99.99
2022-12-19T11:21:54.000Z,99.99
2022-12-19T11:21:54.000Z,99.99
2022-12-19T11:21:54.000Z,99.99
2022-12-19T11:21:54.000Z,99.99
2022-12-19T11:21:54.000Z,99.99
2022-12-19T11:21:54.000Z,99.99
2022-12-19T11:22:54.000Z,99.99
2022-12-19T11:22:54.000Z,99.99
2022-12-19T11:22:54.000Z,99.99
2022-12-19T11:23:54.000Z,99.99
2022-12-19T11:23:54.000Z,99.99
2022-12-19T11:24:54.000Z,99.99
2022-12-19T11:24:54.000Z,99.99
2022-12-19T11:25:54.000Z,99.99
2022-12-19T11:25:54.000Z,99.99
2022-12-19T11:26:54.000Z,99.99
2022-12-19T11:26:54.000Z,99.99
2022-12-19T11:27:54.000Z,99.99
2022-12-19T11:27:54.000Z,99.99
2022-12-19T11:28:54.000Z,99.99
2022-12-19T11:29:54.000Z,99.99
2022-12-19T11:30:54.000Z,99.99
2022-12-19T11:31:54.000Z,99.99
2022-12-19T11:32:54.000Z,99.99
2022-12-19T11:35:12.000Z,99.99
2022-12-19T11:35:12.000Z,99.99
2022-12-19T11:36:12.000Z,99.99
2022-12-19T11:37:12.000Z,99.99
2022-12-19T11:38:12.000Z,99.99
2022-12-19T11:39:12.000Z,99.99
2022-12-19T11:40:12.000Z,99.99
2022-12-19T11:41:12.000Z,99.99
2022-12-19T11:42:12.000Z,99.99
2022-12-19T11:43:12.000Z,99.99
2022-12-19T12:11:41.000Z,99.99
2022-12-19T12:11:41.000Z,99.99
2022-12-19T12:11:41.000Z,99.99
2022-12-19T12:11:41.000Z,99.99
2022-12-19T12:12:41.000Z,99.99
2022-12-19T12:12:41.000Z,99.99
2022-12-19T12:13:41.000Z,99.99
2022-12-19T12:13:41.000Z,99.99
2022-12-19T12:14:41.000Z,99.99
2022-12-19T12:14:41.000Z,99.99
2022-12-19T12:15:41.000Z,99.99
2022-12-19T12:16:41.000Z,99.99
2022-12-19T12:17:41.000Z,99.99
2022-12-19T12:18:41.000Z,99.99
2022-12-19T12:19:41.000Z,99.99
2022-12-19T12:37:17.000Z,99.99
2022-12-19T12:37:17.000Z,99.99
2022-12-19T12:38:17.000Z,99.99
2022-12-19T12:39:17.000Z,99.99
2022-12-19T12:40:17.000Z,99.99
2022-12-19T12:41:17.000Z,99.99
2022-12-19T12:42:17.000Z,99.99
2022-12-19T12:43:17.000Z,99.99
2022-12-19T12:44:17.000Z,99.99
2022-12-19T12:45:17.000Z,99.99
2022-12-19T12:46:17.000Z,99.99
2022-12-19T12:47:17.000Z,99.99
2022-12-19T12:48:17.000Z,99.99
2022-12-19T12:49:17.000Z,99.99
2022-12-19T12:50:17.000Z,99.99
2022-12-19T12:51:17.000Z,99.99
2022-12-19T12:52:17.000Z,99.99
2022-12-19T12:53:17.000Z,99.99
2022-12-19T12:54:17.000Z,99.99
2022-12-19T12:55:17.000Z,99.99
2022-12-19T12:56:17.000Z,99.99
2022-12-19T12:57:17.000Z,99.99
2022-12-19T12:58:17.000Z,99.99
2022-12-19T12:59:17.000Z,99.99
2022-12-19T13:00:17.000Z,99.99
2022-12-19T13:07:53.000Z,99.99
2022-12-19T13:07:53.000Z,99.99
2022-12-19T13:08:53.000Z,99.99
2022-12-19T13:09:53.000Z,99.99
2022-12-19T13:10:53.000Z,99.99
2022-12-19T13:11:53.000Z,99.99
2022-12-19T13:12:53.000Z,99.99
2022-12-19T13:13:53.000Z,99.99
2022-12-19T13:14:53.000Z,99.99
2022-12-19T13:15:53.000Z,99.99
2022-12-19T13:50:40.000Z,99.99
2022-12-19T13:50:40.000Z,99.99
2022-12-19T13:50:40.000Z,99.99
2022-12-19T13:50:40.000Z,99.99
2022-12-19T13:51:40.000Z,99.99
2022-12-19T13:51:40.000Z,99.99
2022-12-19T13:52:40.000Z,99.99
2022-12-19T13:52:40.000Z,99.99
2022-12-19T13:53:40.000Z,99.99
2022-12-19T13:54:40.000Z,99.99
2022-12-19T13:55:40.000Z,99.99
2022-12-19T13:56:40.000Z,99.99
2022-12-19T13:57:40.000Z,99.99
2022-12-19T13:58:40.000Z,99.99
2022-12-19T13:59:40.000Z,99.99
2022-12-19T14:00:39.000Z,99.99
2022-12-19T14:01:39.000Z,99.99
2022-12-19T14:02:39.000Z,99.99
2022-12-19T14:09:57.000Z,99.99